Time;durP1;ratioP1;P1;durP2;ratioP2;P2;SDS_P1;SDS_P2;PMS_P1;PMS_P2;Temp;Humidity;BMP_temperature;BMP_pressure;BME280_temperature;BME280_humidity;BME280_pressure;Samples;Min_cycle;Max_cycle;Signal;HPM_P1;HPM_P2
2023/10/31 00:01:25;;;;;;;8.57;4.47;;;;;;;;;;4963781;28;20235;-67
2023/10/31 00:03:50;;;;;;;12.63;4.75;;;;;;;;;;4962645;28;20184;-67
2023/10/31 00:06:16;;;;;;;12.43;3.80;;;;;;;;;;4957180;28;20196;-65
2023/10/31 00:08:41;;;;;;;9.27;4.95;;;;;;;;;;4947722;28;22649;-66
2023/10/31 00:11:06;;;;;;;8.98;4.18;;;;;;;;;;4950227;28;20310;-66
2023/10/31 00:13:31;;;;;;;7.03;3.80;;;;;;;;;;4950077;28;20622;-67
2023/10/31 00:15:57;;;;;;;9.10;3.90;;;;;;;;;;4963307;28;20377;-67
2023/10/31 00:18:22;;;;;;;6.82;4.07;;;;;;;;;;4966749;28;20231;-66
2023/10/31 00:20:47;;;;;;;6.90;3.65;;;;;;;;;;4964359;28;20255;-66
2023/10/31 00:23:12;;;;;;;6.07;3.25;;;;;;;;;;4964876;28;20259;-66
2023/10/31 00:25:37;;;;;;;10.67;3.10;;;;;;;;;;4957027;28;20287;-66
2023/10/31 00:28:03;;;;;;;7.97;3.10;;;;;;;;;;4961935;28;20183;-66
2023/10/31 00:30:28;;;;;;;7.50;2.60;;;;;;;;;;4960439;28;20193;-67
2023/10/31 00:32:53;;;;;;;6.97;3.47;;;;;;;;;;4962198;28;20264;-67
2023/10/31 00:35:18;;;;;;;9.70;3.33;;;;;;;;;;4962466;28;20728;-66
2023/10/31 00:37:44;;;;;;;12.93;4.57;;;;;;;;;;4963426;28;20224;-66
2023/10/31 00:40:12;;;;;;;9.93;4.73;;;;;;;;;;4962168;28;20664;-66
2023/10/31 00:42:38;;;;;;;8.17;4.93;;;;;;;;;;4963354;28;20191;-66
2023/10/31 00:45:03;;;;;;;11.38;5.05;;;;;;;;;;4964990;28;20201;-66
2023/10/31 00:47:28;;;;;;;11.98;5.32;;;;;;;;;;4958156;28;20895;-66
2023/10/31 00:49:54;;;;;;;14.17;6.13;;;;;;;;;;4968601;28;20263;-66
2023/10/31 00:52:19;;;;;;;11.70;6.15;;;;;;;;;;4966687;28;20191;-66
2023/10/31 00:54:44;;;;;;;16.70;7.50;;;;;;;;;;4967950;28;20251;-66
2023/10/31 00:57:09;;;;;;;17.67;7.57;;;;;;;;;;4969089;28;20204;-66
2023/10/31 00:59:34;;;;;;;20.67;8.98;;;;;;;;;;4973775;28;20652;-66
2023/10/31 01:02:00;;;;;;;23.00;9.52;;;;;;;;;;4974554;28;20560;-66
2023/10/31 01:04:25;;;;;;;21.15;10.65;;;;;;;;;;4965394;28;20188;-66
2023/10/31 01:06:51;;;;;;;22.23;10.43;;;;;;;;;;4971030;28;20250;-66
2023/10/31 01:09:16;;;;;;;22.83;10.50;;;;;;;;;;4974862;28;20184;-66
2023/10/31 01:11:42;;;;;;;24.17;10.37;;;;;;;;;;4974623;28;20181;-66
2023/10/31 01:14:07;;;;;;;18.43;9.70;;;;;;;;;;4972936;28;20651;-66
2023/10/31 01:16:32;;;;;;;18.13;10.15;;;;;;;;;;4973833;28;20201;-66
2023/10/31 01:18:58;;;;;;;15.73;9.03;;;;;;;;;;4973844;28;20268;-65
2023/10/31 01:21:23;;;;;;;13.40;8.20;;;;;;;;;;4964327;28;20192;-66
2023/10/31 01:23:49;;;;;;;19.83;8.50;;;;;;;;;;4970143;28;20184;-66
2023/10/31 01:26:14;;;;;;;15.98;9.05;;;;;;;;;;4972723;28;20271;-66
2023/10/31 01:28:39;;;;;;;13.73;8.02;;;;;;;;;;4971286;28;20208;-66
2023/10/31 01:31:06;;;;;;;12.07;8.18;;;;;;;;;;4973353;28;20224;-66
2023/10/31 01:33:31;;;;;;;11.02;6.60;;;;;;;;;;4971182;28;20177;-66
2023/10/31 01:35:56;;;;;;;13.98;6.72;;;;;;;;;;4970330;28;20758;-66
2023/10/31 01:38:21;;;;;;;14.40;5.63;;;;;;;;;;4966593;28;20220;-66
2023/10/31 01:40:50;;;;;;;10.48;5.78;;;;;;;;;;4966597;28;20259;-66
2023/10/31 01:43:35;;;;;;;10.27;5.00;;;;;;;;;;4970772;28;20656;-66
2023/10/31 01:46:00;;;;;;;9.93;4.68;;;;;;;;;;4971760;28;20236;-66
2023/10/31 01:48:27;;;;;;;10.10;5.43;;;;;;;;;;4973518;28;20224;-66
2023/10/31 01:50:52;;;;;;;10.13;5.40;;;;;;;;;;4973079;28;20176;-66
2023/10/31 01:53:18;;;;;;;11.05;5.75;;;;;;;;;;4972597;28;20183;-66
2023/10/31 01:55:44;;;;;;;9.60;4.78;;;;;;;;;;4973366;28;20201;-66
2023/10/31 01:58:10;;;;;;;14.48;5.43;;;;;;;;;;4963078;28;20204;-65
2023/10/31 02:00:36;;;;;;;11.43;5.13;;;;;;;;;;4969368;28;20192;-66
2023/10/31 02:03:02;;;;;;;9.98;5.15;;;;;;;;;;4968745;28;20556;-65
2023/10/31 02:05:28;;;;;;;11.57;5.60;;;;;;;;;;4972568;28;20196;-65
2023/10/31 02:07:53;;;;;;;13.90;7.75;;;;;;;;;;4970484;28;20671;-65
2023/10/31 02:10:19;;;;;;;15.18;6.70;;;;;;;;;;4971930;28;20184;-66
2023/10/31 02:12:44;;;;;;;12.15;7.00;;;;;;;;;;4966881;28;20188;-66
2023/10/31 02:15:09;;;;;;;14.50;6.50;;;;;;;;;;4971327;28;20200;-66
2023/10/31 02:17:34;;;;;;;19.30;6.97;;;;;;;;;;4963968;28;20231;-66
2023/10/31 02:19:59;;;;;;;8.82;5.70;;;;;;;;;;4970783;28;20548;-66
2023/10/31 02:22:25;;;;;;;12.13;5.93;;;;;;;;;;4973094;28;20185;-66
2023/10/31 02:24:50;;;;;;;15.27;7.03;;;;;;;;;;4969991;28;20279;-66
2023/10/31 02:27:15;;;;;;;16.40;6.50;;;;;;;;;;4972272;28;20238;-66
2023/10/31 02:29:40;;;;;;;11.43;6.72;;;;;;;;;;4972635;28;20640;-66
2023/10/31 02:32:05;;;;;;;11.98;5.63;;;;;;;;;;4971772;28;20187;-66
2023/10/31 02:34:31;;;;;;;10.63;6.87;;;;;;;;;;4971093;28;20203;-66
2023/10/31 02:36:56;;;;;;;9.93;5.63;;;;;;;;;;4955988;28;20200;-65
2023/10/31 02:39:21;;;;;;;11.03;6.13;;;;;;;;;;4970147;28;20176;-66
2023/10/31 02:41:46;;;;;;;14.47;6.30;;;;;;;;;;4969362;28;20640;-65
2023/10/31 02:44:11;;;;;;;13.00;6.60;;;;;;;;;;4967762;28;20180;-66
2023/10/31 02:46:40;;;;;;;19.10;7.60;;;;;;;;;;4972632;28;20201;-66
2023/10/31 02:49:05;;;;;;;15.07;6.33;;;;;;;;;;4969953;28;20219;-66
2023/10/31 02:51:30;;;;;;;10.97;6.20;;;;;;;;;;4971522;28;20196;-66
2023/10/31 02:53:55;;;;;;;9.73;6.18;;;;;;;;;;4964460;28;20181;-66
2023/10/31 02:56:20;;;;;;;13.43;6.43;;;;;;;;;;4967863;28;20215;-66
2023/10/31 02:58:46;;;;;;;13.23;6.37;;;;;;;;;;4970707;28;20235;-66
2023/10/31 03:01:11;;;;;;;13.27;6.35;;;;;;;;;;4972691;28;20235;-66
2023/10/31 03:03:36;;;;;;;12.10;6.53;;;;;;;;;;4970911;28;20177;-66
2023/10/31 03:06:02;;;;;;;9.07;5.83;;;;;;;;;;4969484;28;20629;-66
2023/10/31 03:08:27;;;;;;;12.52;6.78;;;;;;;;;;4971711;28;20177;-66
2023/10/31 03:10:53;;;;;;;11.82;5.80;;;;;;;;;;4971412;28;20666;-66
2023/10/31 03:13:18;;;;;;;14.17;5.93;;;;;;;;;;4963330;28;20195;-66
2023/10/31 03:15:43;;;;;;;8.33;5.33;;;;;;;;;;4966297;28;20778;-65
2023/10/31 03:18:09;;;;;;;12.20;5.77;;;;;;;;;;4971978;28;20262;-66
2023/10/31 03:20:34;;;;;;;8.70;5.27;;;;;;;;;;4970750;28;20172;-66
2023/10/31 03:22:59;;;;;;;11.83;6.40;;;;;;;;;;4971843;28;20177;-66
2023/10/31 03:25:24;;;;;;;10.83;6.50;;;;;;;;;;4970819;28;20231;-66
2023/10/31 03:27:49;;;;;;;11.00;6.63;;;;;;;;;;4972285;28;20182;-66
2023/10/31 03:30:15;;;;;;;13.23;6.80;;;;;;;;;;4967012;28;20181;-65
2023/10/31 03:32:40;;;;;;;13.77;6.37;;;;;;;;;;4962839;28;20180;-66
2023/10/31 03:35:05;;;;;;;13.77;6.70;;;;;;;;;;4967026;28;20200;-66
2023/10/31 03:37:30;;;;;;;10.70;6.05;;;;;;;;;;4969896;28;20256;-66
2023/10/31 03:39:56;;;;;;;9.57;5.50;;;;;;;;;;4970158;28;20215;-65
2023/10/31 03:42:21;;;;;;;7.73;3.83;;;;;;;;;;4968569;28;20310;-65
2023/10/31 03:44:46;;;;;;;8.10;3.60;;;;;;;;;;4968500;28;20680;-65
2023/10/31 03:47:11;;;;;;;8.70;3.67;;;;;;;;;;4966196;28;20192;-66
2023/10/31 03:49:40;;;;;;;8.83;3.83;;;;;;;;;;4969487;28;20183;-66
2023/10/31 03:52:05;;;;;;;7.97;3.27;;;;;;;;;;4960362;28;20550;-66
2023/10/31 03:54:31;;;;;;;7.53;3.37;;;;;;;;;;4969313;28;20176;-65
2023/10/31 03:56:56;;;;;;;6.30;3.30;;;;;;;;;;4971135;28;20196;-65
2023/10/31 03:59:21;;;;;;;7.40;3.83;;;;;;;;;;4970097;28;21022;-65
2023/10/31 04:01:46;;;;;;;9.73;4.40;;;;;;;;;;4965854;28;20185;-66
2023/10/31 04:04:12;;;;;;;6.20;4.45;;;;;;;;;;4969462;28;20172;-65
2023/10/31 04:06:40;;;;;;;9.53;3.60;;;;;;;;;;4969674;28;20267;-65
2023/10/31 04:09:05;;;;;;;6.65;3.70;;;;;;;;;;4970775;28;20263;-65
2023/10/31 04:11:31;;;;;;;3.40;2.33;;;;;;;;;;4961714;28;20751;-65
2023/10/31 04:13:56;;;;;;;2.25;1.15;;;;;;;;;;4969407;28;20195;-66
2023/10/31 04:16:21;;;;;;;7.63;1.10;;;;;;;;;;4969956;28;20256;-66
2023/10/31 04:18:46;;;;;;;2.87;0.83;;;;;;;;;;4966426;28;20182;-66
2023/10/31 04:21:12;;;;;;;3.83;1.10;;;;;;;;;;4974540;28;20189;-66
2023/10/31 04:23:37;;;;;;;2.45;0.95;;;;;;;;;;4972906;28;20207;-65
2023/10/31 04:26:02;;;;;;;1.63;1.20;;;;;;;;;;4973377;28;20288;-65
2023/10/31 04:28:27;;;;;;;1.10;0.85;;;;;;;;;;4974532;28;20184;-65
2023/10/31 04:30:52;;;;;;;4.33;1.20;;;;;;;;;;4964981;28;20234;-65
2023/10/31 04:33:18;;;;;;;2.60;1.53;;;;;;;;;;4971962;28;20181;-65
2023/10/31 04:35:43;;;;;;;4.50;1.63;;;;;;;;;;4975338;28;20211;-65
2023/10/31 04:38:08;;;;;;;8.52;1.40;;;;;;;;;;4975697;28;20679;-65
2023/10/31 04:40:33;;;;;;;3.50;1.23;;;;;;;;;;4981221;28;20187;-65
2023/10/31 04:42:58;;;;;;;4.40;1.63;;;;;;;;;;4974712;28;20311;-65
2023/10/31 04:45:24;;;;;;;3.40;1.40;;;;;;;;;;4974903;28;20196;-66
2023/10/31 04:47:49;;;;;;;3.63;1.70;;;;;;;;;;4963796;28;20176;-66
2023/10/31 04:50:15;;;;;;;3.60;2.23;;;;;;;;;;4975064;28;20184;-65
2023/10/31 04:52:40;;;;;;;3.77;2.40;;;;;;;;;;4976303;28;20263;-65
2023/10/31 04:55:05;;;;;;;6.18;2.30;;;;;;;;;;4972784;28;20227;-66
2023/10/31 04:57:30;;;;;;;9.43;3.63;;;;;;;;;;4975106;28;20229;-66
2023/10/31 04:59:57;;;;;;;7.33;3.97;;;;;;;;;;4971710;28;20176;-65
2023/10/31 05:02:22;;;;;;;8.45;4.72;;;;;;;;;;4974406;28;20551;-65
2023/10/31 05:04:50;;;;;;;7.50;4.47;;;;;;;;;;4973078;28;20192;-66
2023/10/31 05:07:15;;;;;;;6.95;4.45;;;;;;;;;;4961838;28;20627;-66
2023/10/31 05:09:41;;;;;;;10.30;4.22;;;;;;;;;;4972910;28;20283;-66
2023/10/31 05:12:06;;;;;;;6.05;4.00;;;;;;;;;;4974428;28;20181;-66
2023/10/31 05:14:31;;;;;;;10.10;4.47;;;;;;;;;;4973796;28;20266;-66
2023/10/31 05:16:57;;;;;;;4.97;3.15;;;;;;;;;;4970901;28;20204;-66
2023/10/31 05:19:22;;;;;;;5.07;3.28;;;;;;;;;;4969616;28;20172;-66
2023/10/31 05:21:47;;;;;;;3.13;2.65;;;;;;;;;;4973178;28;20598;-66
2023/10/31 05:24:12;;;;;;;7.88;3.80;;;;;;;;;;4968613;28;20211;-66
2023/10/31 05:26:39;;;;;;;4.18;2.55;;;;;;;;;;4964100;28;20643;-66
2023/10/31 05:29:04;;;;;;;1.98;1.77;;;;;;;;;;4975631;28;20681;-66
2023/10/31 05:31:29;;;;;;;3.70;1.83;;;;;;;;;;4971047;28;20279;-66
2023/10/31 05:33:55;;;;;;;2.70;1.40;;;;;;;;;;4965142;28;20220;-66
2023/10/31 05:36:23;;;;;;;2.97;0.90;;;;;;;;;;4964379;28;20443;-65
2023/10/31 05:38:48;;;;;;;2.27;0.90;;;;;;;;;;4972734;28;20649;-66
2023/10/31 05:41:14;;;;;;;0.53;0.50;;;;;;;;;;4970663;28;20276;-66
2023/10/31 05:43:40;;;;;;;1.20;0.73;;;;;;;;;;4972420;28;20667;-66
2023/10/31 05:46:05;;;;;;;2.53;1.33;;;;;;;;;;4965981;28;20971;-66
2023/10/31 05:48:31;;;;;;;1.20;0.90;;;;;;;;;;4965133;28;20198;-67
2023/10/31 05:50:56;;;;;;;2.03;1.00;;;;;;;;;;4968188;28;20331;-67
2023/10/31 05:53:21;;;;;;;3.07;0.93;;;;;;;;;;4970703;28;20199;-67
2023/10/31 05:55:46;;;;;;;3.13;1.30;;;;;;;;;;4970737;28;20208;-67
2023/10/31 05:58:12;;;;;;;2.40;1.33;;;;;;;;;;4972758;28;20210;-67
2023/10/31 06:00:37;;;;;;;1.03;0.70;;;;;;;;;;4966262;28;20195;-67
2023/10/31 06:03:02;;;;;;;5.03;0.90;;;;;;;;;;4971305;28;20172;-67
2023/10/31 06:05:28;;;;;;;2.27;1.10;;;;;;;;;;4963326;28;20224;-67
2023/10/31 06:07:53;;;;;;;1.17;0.90;;;;;;;;;;4969573;28;20282;-67
2023/10/31 06:10:18;;;;;;;2.77;0.90;;;;;;;;;;4972015;28;20202;-67
2023/10/31 06:12:43;;;;;;;3.07;0.90;;;;;;;;;;4971025;28;20568;-67
2023/10/31 06:15:09;;;;;;;1.83;0.90;;;;;;;;;;4971880;28;20196;-67
2023/10/31 06:17:34;;;;;;;2.50;1.00;;;;;;;;;;4960319;28;20215;-67
2023/10/31 06:19:59;;;;;;;4.17;0.60;;;;;;;;;;4971485;28;20255;-67
2023/10/31 06:22:25;;;;;;;4.10;0.70;;;;;;;;;;4970404;28;20347;-67
2023/10/31 06:24:50;;;;;;;2.70;0.77;;;;;;;;;;4973362;28;20200;-66
2023/10/31 06:27:15;;;;;;;3.93;1.00;;;;;;;;;;4965389;28;20239;-66
2023/10/31 06:29:40;;;;;;;3.87;1.27;;;;;;;;;;4967233;28;20721;-66
2023/10/31 06:32:06;;;;;;;1.50;0.90;;;;;;;;;;4971686;28;20195;-66
2023/10/31 06:34:31;;;;;;;2.67;0.60;;;;;;;;;;4957938;28;20184;-66
2023/10/31 06:36:56;;;;;;;2.93;0.50;;;;;;;;;;4973197;28;20204;-67
2023/10/31 06:39:22;;;;;;;1.70;0.47;;;;;;;;;;4970337;28;20674;-66
2023/10/31 06:41:47;;;;;;;1.70;0.57;;;;;;;;;;4970251;28;20169;-67
2023/10/31 06:44:13;;;;;;;2.93;0.70;;;;;;;;;;4970474;28;20303;-67
2023/10/31 06:46:38;;;;;;;1.77;1.10;;;;;;;;;;4971860;28;20577;-67
2023/10/31 06:49:03;;;;;;;2.30;1.00;;;;;;;;;;4968334;28;20198;-66
2023/10/31 06:51:28;;;;;;;2.53;0.50;;;;;;;;;;4963994;28;20195;-67
2023/10/31 06:53:54;;;;;;;1.20;0.80;;;;;;;;;;4966260;28;20215;-67
2023/10/31 06:56:19;;;;;;;1.67;0.80;;;;;;;;;;4968398;28;20634;-66
2023/10/31 06:58:44;;;;;;;3.33;1.37;;;;;;;;;;4975597;28;20219;-66
2023/10/31 07:01:11;;;;;;;2.43;1.10;;;;;;;;;;4964290;28;20180;-66
2023/10/31 07:03:36;;;;;;;2.70;1.20;;;;;;;;;;4972247;28;20176;-66
2023/10/31 07:06:01;;;;;;;3.20;0.80;;;;;;;;;;4969297;28;20585;-66
2023/10/31 07:08:26;;;;;;;1.30;0.73;;;;;;;;;;4972399;28;20192;-66
2023/10/31 07:10:51;;;;;;;5.87;1.10;;;;;;;;;;4971801;28;20492;-67
2023/10/31 07:13:17;;;;;;;2.53;1.80;;;;;;;;;;4966542;28;20283;-67
2023/10/31 07:15:42;;;;;;;3.53;1.50;;;;;;;;;;4971948;28;20576;-67
2023/10/31 07:18:08;;;;;;;4.00;1.27;;;;;;;;;;4963604;28;20684;-66
2023/10/31 07:20:33;;;;;;;3.63;1.87;;;;;;;;;;4966939;28;20607;-66
2023/10/31 07:22:58;;;;;;;3.20;1.70;;;;;;;;;;4972658;28;20181;-67
2023/10/31 07:25:23;;;;;;;6.13;2.10;;;;;;;;;;4971791;28;20229;-66
2023/10/31 07:27:49;;;;;;;5.97;2.53;;;;;;;;;;4968249;28;20947;-66
2023/10/31 07:30:14;;;;;;;4.97;2.30;;;;;;;;;;4971139;28;20216;-66
2023/10/31 07:32:39;;;;;;;3.90;3.07;;;;;;;;;;4968215;28;20193;-66
2023/10/31 07:35:04;;;;;;;4.13;2.60;;;;;;;;;;4961171;28;20676;-64
2023/10/31 07:37:30;;;;;;;10.05;4.03;;;;;;;;;;4966678;28;20278;-64
2023/10/31 07:39:55;;;;;;;5.18;2.97;;;;;;;;;;4966622;28;20251;-64
2023/10/31 07:42:20;;;;;;;8.45;3.33;;;;;;;;;;4958695;28;20180;-65
2023/10/31 07:44:45;;;;;;;4.68;2.75;;;;;;;;;;4976635;28;20231;-65
2023/10/31 07:47:10;;;;;;;10.23;3.42;;;;;;;;;;4967592;28;20465;-65
2023/10/31 07:49:36;;;;;;;6.75;3.92;;;;;;;;;;4969185;28;20191;-65
2023/10/31 07:52:01;;;;;;;5.03;3.38;;;;;;;;;;4970741;28;20180;-67
2023/10/31 07:54:26;;;;;;;10.48;4.70;;;;;;;;;;4969674;28;20234;-65
2023/10/31 07:56:52;;;;;;;6.80;2.97;;;;;;;;;;4969832;28;20212;-65
2023/10/31 07:59:17;;;;;;;5.82;2.70;;;;;;;;;;4959340;28;20181;-66
2023/10/31 08:01:42;;;;;;;6.45;3.50;;;;;;;;;;4969921;28;20169;-65
2023/10/31 08:04:08;;;;;;;4.20;2.90;;;;;;;;;;4973234;28;20663;-66
2023/10/31 08:06:33;;;;;;;3.75;2.67;;;;;;;;;;4970564;28;20231;-66
2023/10/31 08:08:59;;;;;;;5.57;2.50;;;;;;;;;;4977219;28;20178;-65
2023/10/31 08:11:24;;;;;;;3.03;2.58;;;;;;;;;;4971113;28;20191;-65
2023/10/31 08:13:49;;;;;;;3.63;2.45;;;;;;;;;;4971436;28;20196;-66
2023/10/31 08:16:19;;;;;;;7.22;2.33;;;;;;;;;;4970644;28;20211;-66
2023/10/31 08:18:44;;;;;;;3.45;2.40;;;;;;;;;;4956915;28;20222;-65
2023/10/31 08:21:11;;;;;;;6.13;2.97;;;;;;;;;;4967439;28;20173;-66
2023/10/31 08:23:36;;;;;;;6.05;3.00;;;;;;;;;;4970586;28;20192;-65
2023/10/31 08:26:01;;;;;;;8.93;3.88;;;;;;;;;;4971282;28;20572;-65
2023/10/31 08:28:26;;;;;;;6.10;3.65;;;;;;;;;;4970285;28;20343;-65
2023/10/31 08:30:52;;;;;;;5.47;3.35;;;;;;;;;;4971698;28;20173;-66
2023/10/31 08:33:17;;;;;;;7.65;4.60;;;;;;;;;;4968983;28;20188;-65
2023/10/31 08:35:42;;;;;;;7.13;3.72;;;;;;;;;;4965195;28;20223;-65
2023/10/31 08:38:08;;;;;;;9.32;4.38;;;;;;;;;;4964452;28;20209;-65
2023/10/31 08:40:33;;;;;;;6.20;4.00;;;;;;;;;;4968504;28;20181;-65
2023/10/31 08:42:58;;;;;;;7.95;4.18;;;;;;;;;;4970042;28;20176;-66
2023/10/31 08:45:23;;;;;;;6.75;3.95;;;;;;;;;;4971325;28;20189;-65
2023/10/31 08:47:50;;;;;;;7.45;4.75;;;;;;;;;;4969808;28;20177;-65
2023/10/31 08:50:15;;;;;;;13.00;4.88;;;;;;;;;;4968510;28;20192;-65
2023/10/31 08:52:40;;;;;;;6.90;4.03;;;;;;;;;;4970899;28;20247;-65
2023/10/31 08:55:06;;;;;;;9.02;4.57;;;;;;;;;;4970768;28;20193;-67
2023/10/31 08:57:33;;;;;;;9.13;3.85;;;;;;;;;;4959031;28;20212;-65
2023/10/31 08:59:58;;;;;;;11.85;4.80;;;;;;;;;;4969582;28;20247;-65
2023/10/31 09:02:23;;;;;;;8.73;4.90;;;;;;;;;;4971520;28;20676;-65
2023/10/31 09:04:49;;;;;;;8.73;5.53;;;;;;;;;;4971315;28;20338;-65
2023/10/31 09:07:14;;;;;;;7.10;4.22;;;;;;;;;;4974560;28;20230;-65
2023/10/31 09:09:39;;;;;;;7.63;5.15;;;;;;;;;;4974168;28;20193;-65
2023/10/31 09:12:05;;;;;;;8.50;4.88;;;;;;;;;;4974858;28;20168;-65
2023/10/31 09:14:30;;;;;;;9.35;5.65;;;;;;;;;;4967645;28;20208;-65
2023/10/31 09:16:56;;;;;;;7.40;5.38;;;;;;;;;;4964927;28;20799;-65
2023/10/31 09:19:21;;;;;;;8.13;5.32;;;;;;;;;;4974107;28;20187;-65
2023/10/31 09:21:46;;;;;;;14.48;5.63;;;;;;;;;;4974164;28;20215;-65
2023/10/31 09:24:11;;;;;;;9.23;5.75;;;;;;;;;;4974890;28;20176;-65
2023/10/31 09:26:37;;;;;;;10.15;5.95;;;;;;;;;;4969838;28;20196;-64
2023/10/31 09:29:03;;;;;;;9.73;5.95;;;;;;;;;;4975003;28;20187;-65
2023/10/31 09:31:28;;;;;;;9.35;5.63;;;;;;;;;;4957535;28;20175;-65
2023/10/31 09:33:54;;;;;;;14.30;6.35;;;;;;;;;;4967414;28;20185;-65
2023/10/31 09:36:19;;;;;;;9.30;5.05;;;;;;;;;;4962389;28;20283;-65
2023/10/31 09:38:44;;;;;;;9.40;5.80;;;;;;;;;;4950099;28;20208;-65
2023/10/31 09:41:10;;;;;;;10.38;5.32;;;;;;;;;;4976223;28;20257;-65
2023/10/31 09:43:35;;;;;;;7.93;4.93;;;;;;;;;;4973499;28;20188;-65
2023/10/31 09:46:02;;;;;;;7.03;5.00;;;;;;;;;;4966172;28;20679;-65
2023/10/31 09:48:27;;;;;;;9.25;4.95;;;;;;;;;;4967546;28;20686;-65
2023/10/31 09:50:53;;;;;;;9.65;5.00;;;;;;;;;;4971853;28;20259;-65
2023/10/31 09:53:19;;;;;;;9.77;5.10;;;;;;;;;;4971801;28;20191;-65
2023/10/31 09:55:45;;;;;;;15.57;5.35;;;;;;;;;;4969209;28;20204;-65
2023/10/31 09:58:11;;;;;;;11.20;4.68;;;;;;;;;;4973169;28;20675;-65
2023/10/31 10:00:37;;;;;;;9.70;4.47;;;;;;;;;;4973911;28;20207;-65
2023/10/31 10:03:03;;;;;;;6.68;4.28;;;;;;;;;;4973567;28;20564;-66
2023/10/31 10:05:31;;;;;;;7.88;4.35;;;;;;;;;;4970744;28;20207;-65
2023/10/31 10:07:56;;;;;;;8.20;4.03;;;;;;;;;;4972756;28;20184;-65
2023/10/31 10:10:21;;;;;;;8.02;3.53;;;;;;;;;;4973584;28;20188;-66
2023/10/31 10:12:46;;;;;;;8.77;3.70;;;;;;;;;;4972936;28;20174;-66
2023/10/31 10:15:12;;;;;;;6.15;3.83;;;;;;;;;;4973369;28;20212;-65
2023/10/31 10:17:39;;;;;;;4.63;3.15;;;;;;;;;;4970952;28;20302;-65
2023/10/31 10:20:06;;;;;;;7.45;3.78;;;;;;;;;;4973518;28;20644;-65
2023/10/31 10:22:31;;;;;;;4.50;2.75;;;;;;;;;;4973495;28;20192;-65
2023/10/31 10:24:57;;;;;;;5.28;2.65;;;;;;;;;;4965871;28;20199;-65
2023/10/31 10:27:22;;;;;;;6.05;2.88;;;;;;;;;;4968610;28;20271;-65
2023/10/31 10:29:47;;;;;;;5.68;2.78;;;;;;;;;;4972202;28;20263;-65
2023/10/31 10:32:13;;;;;;;4.28;1.65;;;;;;;;;;4971951;28;20195;-65
2023/10/31 10:34:38;;;;;;;4.03;2.15;;;;;;;;;;4970446;28;20573;-66
2023/10/31 10:37:04;;;;;;;3.97;2.17;;;;;;;;;;4971432;28;20211;-66
2023/10/31 10:39:32;;;;;;;6.57;2.30;;;;;;;;;;4970616;28;20211;-65
2023/10/31 10:42:00;;;;;;;6.65;2.53;;;;;;;;;;4970250;28;20187;-65
2023/10/31 10:44:35;;;;;;;6.85;2.95;;;;;;;;;;4971405;28;20180;-65
2023/10/31 10:47:04;;;;;;;7.40;3.60;;;;;;;;;;4968917;28;20183;-65
2023/10/31 10:49:32;;;;;;;7.00;3.75;;;;;;;;;;4969579;28;20184;-65
2023/10/31 10:52:05;;;;;;;7.95;3.10;;;;;;;;;;4973329;28;20188;-65
2023/10/31 10:54:57;;;;;;;5.93;3.30;;;;;;;;;;4971402;28;20702;-66
2023/10/31 10:57:41;;;;;;;10.02;3.47;;;;;;;;;;4968239;28;20224;-65
2023/10/31 11:00:12;;;;;;;5.97;3.60;;;;;;;;;;4973071;28;20168;-65
2023/10/31 11:02:38;;;;;;;5.25;2.85;;;;;;;;;;4969460;28;20231;-65
2023/10/31 11:05:07;;;;;;;6.63;2.80;;;;;;;;;;4972780;28;20224;-65
2023/10/31 11:07:33;;;;;;;7.28;3.85;;;;;;;;;;4971898;28;20219;-65
2023/10/31 11:10:02;;;;;;;11.68;4.15;;;;;;;;;;4962581;28;20204;-64
2023/10/31 11:12:27;;;;;;;7.57;4.38;;;;;;;;;;4969998;28;20234;-65
2023/10/31 11:14:53;;;;;;;10.40;5.65;;;;;;;;;;4968604;28;20239;-65
2023/10/31 11:17:28;;;;;;;9.82;5.10;;;;;;;;;;4971989;28;20212;-65
2023/10/31 11:19:54;;;;;;;10.93;7.50;;;;;;;;;;4970004;28;20681;-64
2023/10/31 11:22:19;;;;;;;13.00;7.85;;;;;;;;;;4966529;28;20272;-66
2023/10/31 11:24:45;;;;;;;12.55;7.50;;;;;;;;;;4972070;28;20283;-65
2023/10/31 11:27:10;;;;;;;11.00;6.90;;;;;;;;;;4972164;28;20191;-65
2023/10/31 11:29:36;;;;;;;15.23;8.77;;;;;;;;;;4970874;28;20695;-65
2023/10/31 11:32:03;;;;;;;12.73;8.15;;;;;;;;;;4972097;28;20554;-66
2023/10/31 11:34:29;;;;;;;13.48;9.55;;;;;;;;;;4968896;28;20628;-65
2023/10/31 11:37:14;;;;;;;15.57;10.13;;;;;;;;;;4973149;28;20180;-65
2023/10/31 11:39:39;;;;;;;15.40;9.13;;;;;;;;;;4963195;28;20177;-65
2023/10/31 11:42:16;;;;;;;18.80;9.95;;;;;;;;;;4971825;28;20226;-65
2023/10/31 11:44:54;;;;;;;23.50;10.82;;;;;;;;;;4969713;28;20207;-65
2023/10/31 11:47:22;;;;;;;17.42;10.65;;;;;;;;;;4972809;28;20749;-65
2023/10/31 11:49:48;;;;;;;17.60;10.07;;;;;;;;;;4970119;28;20750;-66
2023/10/31 11:52:19;;;;;;;17.58;10.23;;;;;;;;;;4972052;28;20188;-65
2023/10/31 11:54:44;;;;;;;16.40;9.77;;;;;;;;;;4970453;28;20211;-65
2023/10/31 11:57:10;;;;;;;17.38;9.77;;;;;;;;;;4971292;28;20203;-65
2023/10/31 11:59:36;;;;;;;18.35;10.23;;;;;;;;;;4971181;28;20223;-65
2023/10/31 12:02:12;;;;;;;17.55;9.60;;;;;;;;;;4961500;28;20180;-65
2023/10/31 12:04:37;;;;;;;17.33;10.15;;;;;;;;;;4969055;28;20548;-65
2023/10/31 12:07:03;;;;;;;15.43;9.45;;;;;;;;;;4972241;28;20183;-65
2023/10/31 12:09:29;;;;;;;18.65;10.02;;;;;;;;;;4970068;28;20181;-65
2023/10/31 12:11:54;;;;;;;14.88;9.88;;;;;;;;;;4972074;28;20183;-65
2023/10/31 12:14:20;;;;;;;17.23;10.18;;;;;;;;;;4970591;28;20203;-64
2023/10/31 12:16:46;;;;;;;17.67;9.65;;;;;;;;;;4971039;28;20273;-65
2023/10/31 12:19:11;;;;;;;16.38;10.10;;;;;;;;;;4977057;28;20205;-64
2023/10/31 12:21:41;;;;;;;14.32;9.45;;;;;;;;;;4972691;28;20235;-65
2023/10/31 12:24:07;;;;;;;16.95;9.07;;;;;;;;;;4969834;28;20176;-65
2023/10/31 12:26:34;;;;;;;15.27;9.40;;;;;;;;;;4969859;28;20254;-65
2023/10/31 12:29:15;;;;;;;20.02;10.27;;;;;;;;;;4970731;28;20180;-65
2023/10/31 12:31:43;;;;;;;18.80;9.80;;;;;;;;;;4960540;28;20247;-65
2023/10/31 12:34:09;;;;;;;17.98;9.00;;;;;;;;;;4951825;28;20271;-65
2023/10/31 12:36:35;;;;;;;19.00;9.25;;;;;;;;;;4965105;28;20743;-65
2023/10/31 12:39:01;;;;;;;17.08;9.70;;;;;;;;;;4963310;28;20216;-65
2023/10/31 12:41:27;;;;;;;16.48;10.52;;;;;;;;;;4969174;28;20185;-66
2023/10/31 12:43:52;;;;;;;16.55;10.48;;;;;;;;;;4974350;28;20271;-65
2023/10/31 12:46:25;;;;;;;16.50;10.00;;;;;;;;;;4975331;28;20279;-65
2023/10/31 12:48:50;;;;;;;17.90;11.55;;;;;;;;;;4977994;28;20188;-65
2023/10/31 12:51:15;;;;;;;20.15;11.13;;;;;;;;;;4972796;28;20199;-65
2023/10/31 12:53:40;;;;;;;22.13;12.05;;;;;;;;;;4973089;28;20718;-65
2023/10/31 12:56:06;;;;;;;17.90;10.35;;;;;;;;;;4973194;28;20598;-65
2023/10/31 12:58:31;;;;;;;20.00;11.60;;;;;;;;;;4968380;28;20222;-65
2023/10/31 13:00:56;;;;;;;16.90;11.13;;;;;;;;;;4965539;28;20263;-65
2023/10/31 13:03:22;;;;;;;17.98;9.85;;;;;;;;;;4974034;28;20637;-65
2023/10/31 13:05:47;;;;;;;17.10;10.43;;;;;;;;;;4973726;28;20197;-65
2023/10/31 13:08:13;;;;;;;19.48;12.95;;;;;;;;;;4973552;28;20189;-65
2023/10/31 13:10:39;;;;;;;25.52;14.35;;;;;;;;;;4972608;28;20660;-65
2023/10/31 13:13:04;;;;;;;22.52;13.98;;;;;;;;;;4973929;28;20196;-65
2023/10/31 13:15:29;;;;;;;23.63;13.55;;;;;;;;;;4972931;28;20616;-65
2023/10/31 13:17:54;;;;;;;20.92;13.18;;;;;;;;;;4974696;28;20216;-65
2023/10/31 13:20:20;;;;;;;20.73;13.85;;;;;;;;;;4974722;28;20613;-65
2023/10/31 13:22:46;;;;;;;20.88;13.20;;;;;;;;;;4974503;28;20201;-65
2023/10/31 13:25:12;;;;;;;17.75;11.55;;;;;;;;;;4972825;28;20770;-64
2023/10/31 13:27:38;;;;;;;20.88;13.48;;;;;;;;;;4973636;28;20184;-65
2023/10/31 13:30:04;;;;;;;18.85;12.20;;;;;;;;;;4973018;28;20694;-65
2023/10/31 13:32:29;;;;;;;22.30;12.88;;;;;;;;;;4964148;28;20333;-65
2023/10/31 13:34:54;;;;;;;17.70;12.68;;;;;;;;;;4954679;28;20695;-65
2023/10/31 13:37:20;;;;;;;20.05;12.00;;;;;;;;;;4954227;28;21107;-65
2023/10/31 13:39:45;;;;;;;19.27;12.25;;;;;;;;;;4952759;28;20191;-65
2023/10/31 13:42:11;;;;;;;19.70;10.75;;;;;;;;;;4953763;28;20670;-66
2023/10/31 13:44:36;;;;;;;16.02;10.52;;;;;;;;;;4954549;28;20213;-66
2023/10/31 13:47:02;;;;;;;20.92;10.85;;;;;;;;;;4955079;28;20254;-66
2023/10/31 13:49:27;;;;;;;16.92;10.23;;;;;;;;;;4958837;28;20235;-66
2023/10/31 13:51:53;;;;;;;16.40;10.25;;;;;;;;;;4956628;28;20286;-66
2023/10/31 13:54:19;;;;;;;15.98;9.75;;;;;;;;;;4955089;28;20693;-65
2023/10/31 13:56:44;;;;;;;15.00;9.98;;;;;;;;;;4953178;28;20181;-66
2023/10/31 13:59:09;;;;;;;21.35;10.60;;;;;;;;;;4953547;28;20187;-65
2023/10/31 14:01:34;;;;;;;17.95;10.40;;;;;;;;;;4954161;28;20275;-66
2023/10/31 14:04:00;;;;;;;21.83;10.68;;;;;;;;;;4959117;28;20396;-66
2023/10/31 14:06:29;;;;;;;17.33;10.65;;;;;;;;;;4953292;28;20744;-65
2023/10/31 14:08:55;;;;;;;17.10;10.27;;;;;;;;;;4953424;28;20651;-66
2023/10/31 14:11:20;;;;;;;18.45;11.45;;;;;;;;;;4952689;28;20238;-66
2023/10/31 14:13:45;;;;;;;20.77;12.20;;;;;;;;;;4954664;28;20188;-66
2023/10/31 14:16:11;;;;;;;23.25;13.20;;;;;;;;;;4953002;28;20555;-65
2023/10/31 14:18:37;;;;;;;24.48;14.43;;;;;;;;;;4954033;28;20212;-66
2023/10/31 14:21:03;;;;;;;23.13;12.88;;;;;;;;;;4957928;28;20191;-66
2023/10/31 14:23:28;;;;;;;23.55;14.73;;;;;;;;;;4967396;28;20176;-66
2023/10/31 14:25:53;;;;;;;24.48;15.38;;;;;;;;;;4953004;28;20207;-66
2023/10/31 14:28:18;;;;;;;26.27;15.13;;;;;;;;;;4953584;28;20568;-65